sensor_id;sensor_type;location;lat;lon;timestamp;P1;durP1;ratioP1;P2;durP2;ratioP2
14799;SDS011;7491;57.750;11.970;2023-03-14T00:01:57;31.25;;;6.13;;
14799;SDS011;7491;57.750;11.970;2023-03-14T00:04:24;28.10;;;4.30;;
14799;SDS011;7491;57.750;11.970;2023-03-14T00:06:51;33.10;;;5.28;;
14799;SDS011;7491;57.750;11.970;2023-03-14T00:09:17;29.98;;;4.20;;
14799;SDS011;7491;57.750;11.970;2023-03-14T00:11:46;28.38;;;4.07;;
14799;SDS011;7491;57.750;11.970;2023-03-14T00:14:12;25.05;;;5.00;;
14799;SDS011;7491;57.750;11.970;2023-03-14T00:16:40;25.50;;;3.85;;
14799;SDS011;7491;57.750;11.970;2023-03-14T00:19:07;27.52;;;4.05;;
14799;SDS011;7491;57.750;11.970;2023-03-14T00:21:34;19.63;;;4.05;;
14799;SDS011;7491;57.750;11.970;2023-03-14T00:24:00;22.30;;;3.95;;
14799;SDS011;7491;57.750;11.970;2023-03-14T00:26:27;23.20;;;4.88;;
14799;SDS011;7491;57.750;11.970;2023-03-14T00:28:55;28.65;;;5.78;;
14799;SDS011;7491;57.750;11.970;2023-03-14T00:31:22;26.02;;;5.47;;
14799;SDS011;7491;57.750;11.970;2023-03-14T00:33:50;22.40;;;5.65;;
14799;SDS011;7491;57.750;11.970;2023-03-14T00:36:18;20.63;;;4.57;;
14799;SDS011;7491;57.750;11.970;2023-03-14T00:38:47;18.05;;;3.80;;
14799;SDS011;7491;57.750;11.970;2023-03-14T00:41:16;17.05;;;4.32;;
14799;SDS011;7491;57.750;11.970;2023-03-14T00:43:44;18.15;;;3.58;;
14799;SDS011;7491;57.750;11.970;2023-03-14T00:46:12;18.17;;;3.22;;
14799;SDS011;7491;57.750;11.970;2023-03-14T00:48:39;21.35;;;3.92;;
14799;SDS011;7491;57.750;11.970;2023-03-14T00:51:07;27.88;;;4.00;;
14799;SDS011;7491;57.750;11.970;2023-03-14T00:53:36;25.60;;;4.50;;
14799;SDS011;7491;57.750;11.970;2023-03-14T00:56:05;21.52;;;4.80;;
14799;SDS011;7491;57.750;11.970;2023-03-14T00:58:33;19.98;;;4.53;;
14799;SDS011;7491;57.750;11.970;2023-03-14T01:01:04;26.55;;;5.13;;
14799;SDS011;7491;57.750;11.970;2023-03-14T01:03:34;25.65;;;5.88;;
14799;SDS011;7491;57.750;11.970;2023-03-14T01:06:08;28.45;;;5.30;;
14799;SDS011;7491;57.750;11.970;2023-03-14T01:08:38;31.83;;;5.03;;
14799;SDS011;7491;57.750;11.970;2023-03-14T01:11:06;32.55;;;5.30;;
14799;SDS011;7491;57.750;11.970;2023-03-14T01:13:34;26.48;;;4.65;;
14799;SDS011;7491;57.750;11.970;2023-03-14T01:16:02;36.08;;;5.55;;
14799;SDS011;7491;57.750;11.970;2023-03-14T01:18:30;28.98;;;6.15;;
14799;SDS011;7491;57.750;11.970;2023-03-14T01:20:58;27.80;;;5.05;;
14799;SDS011;7491;57.750;11.970;2023-03-14T01:23:25;32.45;;;5.53;;
14799;SDS011;7491;57.750;11.970;2023-03-14T01:25:51;29.35;;;4.40;;
14799;SDS011;7491;57.750;11.970;2023-03-14T01:28:18;41.53;;;6.22;;
14799;SDS011;7491;57.750;11.970;2023-03-14T01:30:45;34.50;;;4.85;;
14799;SDS011;7491;57.750;11.970;2023-03-14T01:33:12;28.98;;;4.32;;
14799;SDS011;7491;57.750;11.970;2023-03-14T01:35:39;28.33;;;4.35;;
14799;SDS011;7491;57.750;11.970;2023-03-14T01:38:08;29.55;;;5.10;;
14799;SDS011;7491;57.750;11.970;2023-03-14T01:40:40;23.60;;;4.97;;
14799;SDS011;7491;57.750;11.970;2023-03-14T01:43:13;38.00;;;5.28;;
14799;SDS011;7491;57.750;11.970;2023-03-14T01:48:45;24.45;;;4.28;;
14799;SDS011;7491;57.750;11.970;2023-03-14T01:51:19;29.92;;;5.75;;
14799;SDS011;7491;57.750;11.970;2023-03-14T01:53:53;24.48;;;3.85;;
14799;SDS011;7491;57.750;11.970;2023-03-14T01:56:25;30.10;;;4.03;;
14799;SDS011;7491;57.750;11.970;2023-03-14T01:58:53;26.15;;;4.00;;
14799;SDS011;7491;57.750;11.970;2023-03-14T02:01:21;21.13;;;3.80;;
14799;SDS011;7491;57.750;11.970;2023-03-14T02:03:52;22.35;;;4.10;;
14799;SDS011;7491;57.750;11.970;2023-03-14T02:06:22;24.08;;;4.65;;
14799;SDS011;7491;57.750;11.970;2023-03-14T02:08:53;17.52;;;3.85;;
14799;SDS011;7491;57.750;11.970;2023-03-14T02:11:21;19.83;;;4.70;;
14799;SDS011;7491;57.750;11.970;2023-03-14T02:13:53;20.20;;;3.22;;
14799;SDS011;7491;57.750;11.970;2023-03-14T02:16:20;18.10;;;3.70;;
14799;SDS011;7491;57.750;11.970;2023-03-14T02:18:47;21.67;;;4.07;;
14799;SDS011;7491;57.750;11.970;2023-03-14T02:21:16;15.60;;;3.05;;
14799;SDS011;7491;57.750;11.970;2023-03-14T02:23:48;19.08;;;3.40;;
14799;SDS011;7491;57.750;11.970;2023-03-14T02:26:22;20.85;;;3.65;;
14799;SDS011;7491;57.750;11.970;2023-03-14T02:28:54;26.33;;;4.43;;
14799;SDS011;7491;57.750;11.970;2023-03-14T02:31:21;23.95;;;3.72;;
14799;SDS011;7491;57.750;11.970;2023-03-14T02:33:49;20.50;;;3.83;;
14799;SDS011;7491;57.750;11.970;2023-03-14T02:36:17;23.27;;;2.90;;
14799;SDS011;7491;57.750;11.970;2023-03-14T02:38:47;21.35;;;3.28;;
14799;SDS011;7491;57.750;11.970;2023-03-14T02:41:19;18.20;;;3.08;;
14799;SDS011;7491;57.750;11.970;2023-03-14T02:43:46;23.60;;;3.58;;
14799;SDS011;7491;57.750;11.970;2023-03-14T02:46:14;21.00;;;2.85;;
14799;SDS011;7491;57.750;11.970;2023-03-14T02:48:45;20.23;;;4.28;;
14799;SDS011;7491;57.750;11.970;2023-03-14T02:51:15;19.83;;;3.67;;
14799;SDS011;7491;57.750;11.970;2023-03-14T02:53:42;29.75;;;4.45;;
14799;SDS011;7491;57.750;11.970;2023-03-14T02:56:09;19.40;;;3.30;;
14799;SDS011;7491;57.750;11.970;2023-03-14T02:58:36;23.75;;;3.78;;
14799;SDS011;7491;57.750;11.970;2023-03-14T03:01:04;22.52;;;3.80;;
14799;SDS011;7491;57.750;11.970;2023-03-14T03:03:32;14.75;;;4.07;;
14799;SDS011;7491;57.750;11.970;2023-03-14T03:05:59;27.55;;;3.42;;
14799;SDS011;7491;57.750;11.970;2023-03-14T03:08:26;31.17;;;4.65;;
14799;SDS011;7491;57.750;11.970;2023-03-14T03:10:54;25.42;;;4.05;;
14799;SDS011;7491;57.750;11.970;2023-03-14T03:13:23;18.80;;;3.22;;
14799;SDS011;7491;57.750;11.970;2023-03-14T03:15:50;20.48;;;3.72;;
14799;SDS011;7491;57.750;11.970;2023-03-14T03:18:17;19.75;;;3.03;;
14799;SDS011;7491;57.750;11.970;2023-03-14T03:20:45;14.95;;;3.22;;
14799;SDS011;7491;57.750;11.970;2023-03-14T03:23:11;25.85;;;3.33;;
14799;SDS011;7491;57.750;11.970;2023-03-14T03:25:38;24.67;;;3.38;;
14799;SDS011;7491;57.750;11.970;2023-03-14T03:28:05;19.75;;;3.17;;
14799;SDS011;7491;57.750;11.970;2023-03-14T03:30:33;24.40;;;2.63;;
14799;SDS011;7491;57.750;11.970;2023-03-14T03:33:03;23.08;;;3.17;;
14799;SDS011;7491;57.750;11.970;2023-03-14T03:35:29;23.02;;;3.72;;
14799;SDS011;7491;57.750;11.970;2023-03-14T03:37:57;29.73;;;3.28;;
14799;SDS011;7491;57.750;11.970;2023-03-14T03:40:24;26.92;;;2.90;;
14799;SDS011;7491;57.750;11.970;2023-03-14T03:42:51;24.13;;;2.75;;
14799;SDS011;7491;57.750;11.970;2023-03-14T03:45:17;20.77;;;2.50;;
14799;SDS011;7491;57.750;11.970;2023-03-14T03:47:44;20.20;;;2.80;;
14799;SDS011;7491;57.750;11.970;2023-03-14T03:50:11;26.60;;;2.85;;
14799;SDS011;7491;57.750;11.970;2023-03-14T03:52:38;20.10;;;2.80;;
14799;SDS011;7491;57.750;11.970;2023-03-14T03:55:06;20.42;;;2.92;;
14799;SDS011;7491;57.750;11.970;2023-03-14T03:57:34;17.23;;;2.67;;
14799;SDS011;7491;57.750;11.970;2023-03-14T04:00:01;13.55;;;2.35;;
14799;SDS011;7491;57.750;11.970;2023-03-14T04:02:27;23.88;;;3.35;;
14799;SDS011;7491;57.750;11.970;2023-03-14T04:04:54;29.10;;;3.50;;
14799;SDS011;7491;57.750;11.970;2023-03-14T04:07:21;20.98;;;2.45;;
14799;SDS011;7491;57.750;11.970;2023-03-14T04:09:47;19.55;;;2.75;;
14799;SDS011;7491;57.750;11.970;2023-03-14T04:12:16;18.20;;;2.83;;
14799;SDS011;7491;57.750;11.970;2023-03-14T04:14:42;23.65;;;4.03;;
14799;SDS011;7491;57.750;11.970;2023-03-14T04:17:09;18.52;;;3.28;;
14799;SDS011;7491;57.750;11.970;2023-03-14T04:19:36;19.23;;;3.08;;
14799;SDS011;7491;57.750;11.970;2023-03-14T04:22:02;30.85;;;4.05;;
14799;SDS011;7491;57.750;11.970;2023-03-14T04:24:29;23.05;;;3.20;;
14799;SDS011;7491;57.750;11.970;2023-03-14T04:26:56;19.80;;;2.75;;
14799;SDS011;7491;57.750;11.970;2023-03-14T04:29:24;30.48;;;2.72;;
14799;SDS011;7491;57.750;11.970;2023-03-14T04:31:51;21.35;;;3.33;;
14799;SDS011;7491;57.750;11.970;2023-03-14T04:34:17;18.90;;;2.80;;
14799;SDS011;7491;57.750;11.970;2023-03-14T04:36:44;27.70;;;3.45;;
14799;SDS011;7491;57.750;11.970;2023-03-14T04:39:11;18.80;;;3.25;;
14799;SDS011;7491;57.750;11.970;2023-03-14T04:41:38;20.48;;;3.25;;
14799;SDS011;7491;57.750;11.970;2023-03-14T04:44:04;20.52;;;3.85;;
14799;SDS011;7491;57.750;11.970;2023-03-14T04:46:32;25.90;;;2.60;;
14799;SDS011;7491;57.750;11.970;2023-03-14T04:48:59;19.92;;;3.55;;
14799;SDS011;7491;57.750;11.970;2023-03-14T04:51:26;22.60;;;3.55;;
14799;SDS011;7491;57.750;11.970;2023-03-14T04:53:53;19.65;;;3.58;;
14799;SDS011;7491;57.750;11.970;2023-03-14T04:56:20;23.33;;;3.50;;
14799;SDS011;7491;57.750;11.970;2023-03-14T04:58:47;21.27;;;3.00;;
14799;SDS011;7491;57.750;11.970;2023-03-14T05:01:14;25.10;;;3.38;;
14799;SDS011;7491;57.750;11.970;2023-03-14T05:03:42;31.92;;;4.75;;
14799;SDS011;7491;57.750;11.970;2023-03-14T05:06:09;27.45;;;4.00;;
14799;SDS011;7491;57.750;11.970;2023-03-14T05:08:35;26.67;;;3.83;;
14799;SDS011;7491;57.750;11.970;2023-03-14T05:11:02;16.73;;;2.85;;
14799;SDS011;7491;57.750;11.970;2023-03-14T05:13:29;27.23;;;3.17;;
14799;SDS011;7491;57.750;11.970;2023-03-14T05:16:02;29.50;;;4.22;;
14799;SDS011;7491;57.750;11.970;2023-03-14T05:18:30;27.90;;;3.30;;
14799;SDS011;7491;57.750;11.970;2023-03-14T05:20:58;27.90;;;3.35;;
14799;SDS011;7491;57.750;11.970;2023-03-14T05:23:25;19.80;;;3.53;;
14799;SDS011;7491;57.750;11.970;2023-03-14T05:25:51;22.55;;;3.38;;
14799;SDS011;7491;57.750;11.970;2023-03-14T05:28:18;25.33;;;3.67;;
14799;SDS011;7491;57.750;11.970;2023-03-14T05:30:45;22.30;;;4.13;;
14799;SDS011;7491;57.750;11.970;2023-03-14T05:33:12;26.77;;;3.10;;
14799;SDS011;7491;57.750;11.970;2023-03-14T05:35:39;8.82;;;1.90;;
14799;SDS011;7491;57.750;11.970;2023-03-14T05:38:07;27.65;;;3.30;;
14799;SDS011;7491;57.750;11.970;2023-03-14T05:40:34;29.38;;;3.97;;
14799;SDS011;7491;57.750;11.970;2023-03-14T05:43:01;28.90;;;4.70;;
14799;SDS011;7491;57.750;11.970;2023-03-14T05:45:27;23.23;;;3.53;;
14799;SDS011;7491;57.750;11.970;2023-03-14T05:47:54;24.52;;;3.42;;
14799;SDS011;7491;57.750;11.970;2023-03-14T05:50:21;32.80;;;4.00;;
14799;SDS011;7491;57.750;11.970;2023-03-14T05:52:48;29.08;;;5.28;;
14799;SDS011;7491;57.750;11.970;2023-03-14T05:55:16;31.33;;;4.25;;
14799;SDS011;7491;57.750;11.970;2023-03-14T05:57:42;27.10;;;4.07;;
14799;SDS011;7491;57.750;11.970;2023-03-14T06:00:10;25.48;;;4.07;;
14799;SDS011;7491;57.750;11.970;2023-03-14T06:02:37;24.88;;;3.53;;
14799;SDS011;7491;57.750;11.970;2023-03-14T06:05:04;27.27;;;3.63;;
14799;SDS011;7491;57.750;11.970;2023-03-14T06:07:31;25.63;;;3.50;;
14799;SDS011;7491;57.750;11.970;2023-03-14T06:09:58;34.67;;;4.72;;
14799;SDS011;7491;57.750;11.970;2023-03-14T06:12:26;40.88;;;4.55;;
14799;SDS011;7491;57.750;11.970;2023-03-14T06:14:53;31.30;;;3.78;;
14799;SDS011;7491;57.750;11.970;2023-03-14T06:17:20;33.67;;;3.72;;
14799;SDS011;7491;57.750;11.970;2023-03-14T06:19:46;31.83;;;4.90;;
14799;SDS011;7491;57.750;11.970;2023-03-14T06:22:13;30.92;;;4.90;;
14799;SDS011;7491;57.750;11.970;2023-03-14T06:24:40;31.67;;;5.03;;
14799;SDS011;7491;57.750;11.970;2023-03-14T06:27:07;24.67;;;4.47;;
14799;SDS011;7491;57.750;11.970;2023-03-14T06:29:35;33.55;;;5.45;;
14799;SDS011;7491;57.750;11.970;2023-03-14T06:32:02;33.95;;;4.45;;
14799;SDS011;7491;57.750;11.970;2023-03-14T06:34:29;31.98;;;4.93;;
14799;SDS011;7491;57.750;11.970;2023-03-14T06:36:58;24.67;;;4.90;;
14799;SDS011;7491;57.750;11.970;2023-03-14T06:39:24;40.50;;;5.50;;
14799;SDS011;7491;57.750;11.970;2023-03-14T06:41:51;24.42;;;4.38;;
14799;SDS011;7491;57.750;11.970;2023-03-14T06:44:18;35.83;;;4.72;;
14799;SDS011;7491;57.750;11.970;2023-03-14T06:46:46;32.72;;;7.22;;
14799;SDS011;7491;57.750;11.970;2023-03-14T06:49:12;35.08;;;5.07;;
14799;SDS011;7491;57.750;11.970;2023-03-14T06:51:39;35.22;;;5.15;;
14799;SDS011;7491;57.750;11.970;2023-03-14T06:54:06;32.75;;;4.85;;
14799;SDS011;7491;57.750;11.970;2023-03-14T06:56:32;35.10;;;4.60;;
14799;SDS011;7491;57.750;11.970;2023-03-14T06:58:59;39.00;;;4.05;;
14799;SDS011;7491;57.750;11.970;2023-03-14T07:01:27;30.15;;;4.25;;
14799;SDS011;7491;57.750;11.970;2023-03-14T07:03:56;38.08;;;4.90;;
14799;SDS011;7491;57.750;11.970;2023-03-14T07:06:23;34.42;;;4.75;;
14799;SDS011;7491;57.750;11.970;2023-03-14T07:08:50;27.58;;;3.85;;
14799;SDS011;7491;57.750;11.970;2023-03-14T07:11:17;28.42;;;5.28;;
14799;SDS011;7491;57.750;11.970;2023-03-14T07:13:44;23.70;;;4.25;;
14799;SDS011;7491;57.750;11.970;2023-03-14T07:16:10;31.15;;;4.38;;
14799;SDS011;7491;57.750;11.970;2023-03-14T07:18:37;29.17;;;4.47;;
14799;SDS011;7491;57.750;11.970;2023-03-14T07:21:06;25.15;;;4.00;;
14799;SDS011;7491;57.750;11.970;2023-03-14T07:23:34;24.55;;;4.10;;
14799;SDS011;7491;57.750;11.970;2023-03-14T07:26:01;23.33;;;4.97;;
14799;SDS011;7491;57.750;11.970;2023-03-14T07:28:28;23.60;;;3.38;;
14799;SDS011;7491;57.750;11.970;2023-03-14T07:30:54;26.17;;;3.55;;
14799;SDS011;7491;57.750;11.970;2023-03-14T07:33:21;21.05;;;3.03;;
14799;SDS011;7491;57.750;11.970;2023-03-14T07:35:48;18.52;;;4.60;;
14799;SDS011;7491;57.750;11.970;2023-03-14T07:38:17;20.67;;;2.88;;
14799;SDS011;7491;57.750;11.970;2023-03-14T07:40:46;23.23;;;3.22;;
14799;SDS011;7491;57.750;11.970;2023-03-14T07:43:13;15.00;;;3.42;;
14799;SDS011;7491;57.750;11.970;2023-03-14T07:45:40;19.17;;;2.72;;
14799;SDS011;7491;57.750;11.970;2023-03-14T07:48:07;20.25;;;2.40;;
14799;SDS011;7491;57.750;11.970;2023-03-14T07:50:33;17.33;;;3.05;;
14799;SDS011;7491;57.750;11.970;2023-03-14T07:53:00;17.50;;;2.90;;
14799;SDS011;7491;57.750;11.970;2023-03-14T07:55:31;15.20;;;2.17;;
14799;SDS011;7491;57.750;11.970;2023-03-14T07:57:58;14.45;;;2.50;;
14799;SDS011;7491;57.750;11.970;2023-03-14T08:00:25;21.27;;;2.80;;
14799;SDS011;7491;57.750;11.970;2023-03-14T08:02:54;16.00;;;2.85;;
14799;SDS011;7491;57.750;11.970;2023-03-14T08:05:20;19.48;;;3.88;;
14799;SDS011;7491;57.750;11.970;2023-03-14T08:07:47;16.27;;;2.38;;
14799;SDS011;7491;57.750;11.970;2023-03-14T08:10:14;13.35;;;2.90;;
14799;SDS011;7491;57.750;11.970;2023-03-14T08:12:48;20.17;;;3.83;;
14799;SDS011;7491;57.750;11.970;2023-03-14T08:15:15;18.98;;;3.25;;
14799;SDS011;7491;57.750;11.970;2023-03-14T08:17:42;16.27;;;2.95;;
14799;SDS011;7491;57.750;11.970;2023-03-14T08:20:10;17.80;;;3.28;;
14799;SDS011;7491;57.750;11.970;2023-03-14T08:22:38;26.75;;;3.17;;
14799;SDS011;7491;57.750;11.970;2023-03-14T08:25:05;18.60;;;3.60;;
14799;SDS011;7491;57.750;11.970;2023-03-14T08:27:32;21.27;;;4.05;;
14799;SDS011;7491;57.750;11.970;2023-03-14T08:30:00;22.08;;;3.10;;
14799;SDS011;7491;57.750;11.970;2023-03-14T08:32:27;19.50;;;2.85;;
14799;SDS011;7491;57.750;11.970;2023-03-14T08:34:55;17.35;;;3.42;;
14799;SDS011;7491;57.750;11.970;2023-03-14T08:37:22;12.82;;;2.58;;
14799;SDS011;7491;57.750;11.970;2023-03-14T08:39:49;16.42;;;2.55;;
14799;SDS011;7491;57.750;11.970;2023-03-14T08:42:17;11.50;;;2.42;;
14799;SDS011;7491;57.750;11.970;2023-03-14T08:44:43;17.35;;;3.47;;
14799;SDS011;7491;57.750;11.970;2023-03-14T08:47:12;13.40;;;3.17;;
14799;SDS011;7491;57.750;11.970;2023-03-14T08:49:39;17.10;;;2.95;;
14799;SDS011;7491;57.750;11.970;2023-03-14T08:52:06;15.10;;;2.63;;
14799;SDS011;7491;57.750;11.970;2023-03-14T08:54:32;8.15;;;1.90;;
14799;SDS011;7491;57.750;11.970;2023-03-14T08:56:59;12.20;;;2.90;;
14799;SDS011;7491;57.750;11.970;2023-03-14T08:59:26;12.88;;;2.67;;
14799;SDS011;7491;57.750;11.970;2023-03-14T09:01:52;11.13;;;1.73;;
14799;SDS011;7491;57.750;11.970;2023-03-14T09:04:22;12.25;;;2.03;;
14799;SDS011;7491;57.750;11.970;2023-03-14T09:06:49;13.38;;;2.22;;
14799;SDS011;7491;57.750;11.970;2023-03-14T09:09:15;8.48;;;2.33;;
14799;SDS011;7491;57.750;11.970;2023-03-14T09:11:45;10.60;;;2.10;;
14799;SDS011;7491;57.750;11.970;2023-03-14T09:14:12;7.57;;;1.75;;
14799;SDS011;7491;57.750;11.970;2023-03-14T09:16:39;9.05;;;1.65;;
14799;SDS011;7491;57.750;11.970;2023-03-14T09:19:06;5.43;;;1.30;;
14799;SDS011;7491;57.750;11.970;2023-03-14T09:21:34;7.07;;;1.50;;
14799;SDS011;7491;57.750;11.970;2023-03-14T09:24:01;8.18;;;2.15;;
14799;SDS011;7491;57.750;11.970;2023-03-14T09:26:28;6.88;;;1.60;;
14799;SDS011;7491;57.750;11.970;2023-03-14T09:28:55;7.53;;;1.60;;
14799;SDS011;7491;57.750;11.970;2023-03-14T09:31:21;7.28;;;1.60;;
14799;SDS011;7491;57.750;11.970;2023-03-14T09:33:48;6.53;;;1.48;;
14799;SDS011;7491;57.750;11.970;2023-03-14T09:36:15;6.00;;;1.88;;
14799;SDS011;7491;57.750;11.970;2023-03-14T09:38:43;4.88;;;1.58;;
14799;SDS011;7491;57.750;11.970;2023-03-14T09:41:12;9.43;;;1.90;;
14799;SDS011;7491;57.750;11.970;2023-03-14T09:43:42;4.93;;;1.50;;
14799;SDS011;7491;57.750;11.970;2023-03-14T09:46:22;9.70;;;1.20;;
14799;SDS011;7491;57.750;11.970;2023-03-14T09:48:49;8.88;;;1.90;;
14799;SDS011;7491;57.750;11.970;2023-03-14T09:51:16;5.95;;;1.10;;
14799;SDS011;7491;57.750;11.970;2023-03-14T09:53:48;5.43;;;1.63;;
14799;SDS011;7491;57.750;11.970;2023-03-14T09:56:17;7.28;;;1.60;;
14799;SDS011;7491;57.750;11.970;2023-03-14T09:58:47;3.72;;;0.93;;
14799;SDS011;7491;57.750;11.970;2023-03-14T10:01:18;8.05;;;2.03;;
14799;SDS011;7491;57.750;11.970;2023-03-14T10:03:49;7.22;;;1.30;;
14799;SDS011;7491;57.750;11.970;2023-03-14T10:06:19;8.88;;;1.70;;
14799;SDS011;7491;57.750;11.970;2023-03-14T10:08:50;9.23;;;1.35;;
14799;SDS011;7491;57.750;11.970;2023-03-14T10:11:18;5.03;;;1.60;;
14799;SDS011;7491;57.750;11.970;2023-03-14T10:13:49;9.38;;;1.70;;
14799;SDS011;7491;57.750;11.970;2023-03-14T10:16:29;9.77;;;1.50;;
14799;SDS011;7491;57.750;11.970;2023-03-14T10:19:04;8.18;;;2.08;;
14799;SDS011;7491;57.750;11.970;2023-03-14T10:21:35;11.10;;;1.65;;
14799;SDS011;7491;57.750;11.970;2023-03-14T10:24:16;13.15;;;1.50;;
14799;SDS011;7491;57.750;11.970;2023-03-14T10:26:47;9.07;;;1.50;;
14799;SDS011;7491;57.750;11.970;2023-03-14T10:29:14;4.47;;;1.33;;
14799;SDS011;7491;57.750;11.970;2023-03-14T10:31:48;4.65;;;1.40;;
14799;SDS011;7491;57.750;11.970;2023-03-14T10:34:20;6.45;;;1.50;;
14799;SDS011;7491;57.750;11.970;2023-03-14T10:36:51;8.32;;;1.90;;
14799;SDS011;7491;57.750;11.970;2023-03-14T10:39:25;8.02;;;2.50;;
14799;SDS011;7491;57.750;11.970;2023-03-14T10:42:09;6.40;;;1.20;;
14799;SDS011;7491;57.750;11.970;2023-03-14T10:44:41;6.32;;;1.27;;
14799;SDS011;7491;57.750;11.970;2023-03-14T10:47:12;6.93;;;1.77;;
14799;SDS011;7491;57.750;11.970;2023-03-14T10:49:43;5.32;;;1.50;;
14799;SDS011;7491;57.750;11.970;2023-03-14T10:52:13;5.95;;;1.45;;
14799;SDS011;7491;57.750;11.970;2023-03-14T10:54:43;11.57;;;1.60;;
14799;SDS011;7491;57.750;11.970;2023-03-14T10:57:13;5.47;;;1.40;;
14799;SDS011;7491;57.750;11.970;2023-03-14T10:59:41;8.23;;;1.70;;
14799;SDS011;7491;57.750;11.970;2023-03-14T11:05:06;5.72;;;2.00;;
14799;SDS011;7491;57.750;11.970;2023-03-14T11:07:45;6.35;;;1.50;;
14799;SDS011;7491;57.750;11.970;2023-03-14T11:10:17;5.10;;;1.27;;
14799;SDS011;7491;57.750;11.970;2023-03-14T11:12:52;8.40;;;1.55;;
14799;SDS011;7491;57.750;11.970;2023-03-14T11:15:32;4.00;;;1.23;;
14799;SDS011;7491;57.750;11.970;2023-03-14T11:21:07;5.38;;;1.20;;
14799;SDS011;7491;57.750;11.970;2023-03-14T11:23:39;6.90;;;1.02;;
14799;SDS011;7491;57.750;11.970;2023-03-14T11:26:19;6.10;;;1.35;;
14799;SDS011;7491;57.750;11.970;2023-03-14T11:28:54;8.75;;;1.45;;
14799;SDS011;7491;57.750;11.970;2023-03-14T11:31:24;6.88;;;1.30;;
14799;SDS011;7491;57.750;11.970;2023-03-14T11:33:55;4.88;;;1.08;;
14799;SDS011;7491;57.750;11.970;2023-03-14T11:36:27;7.72;;;1.10;;
14799;SDS011;7491;57.750;11.970;2023-03-14T11:38:58;4.90;;;1.05;;
14799;SDS011;7491;57.750;11.970;2023-03-14T11:41:27;6.93;;;1.70;;
14799;SDS011;7491;57.750;11.970;2023-03-14T11:43:59;4.63;;;1.00;;
14799;SDS011;7491;57.750;11.970;2023-03-14T11:46:29;4.82;;;1.20;;
14799;SDS011;7491;57.750;11.970;2023-03-14T11:49:01;5.82;;;1.10;;
14799;SDS011;7491;57.750;11.970;2023-03-14T11:51:34;4.20;;;1.13;;
14799;SDS011;7491;57.750;11.970;2023-03-14T11:54:03;3.28;;;0.85;;
14799;SDS011;7491;57.750;11.970;2023-03-14T11:56:41;3.92;;;1.23;;
14799;SDS011;7491;57.750;11.970;2023-03-14T11:59:15;3.72;;;0.90;;
14799;SDS011;7491;57.750;11.970;2023-03-14T12:01:48;2.10;;;0.95;;
14799;SDS011;7491;57.750;11.970;2023-03-14T12:04:20;4.38;;;1.10;;
14799;SDS011;7491;57.750;11.970;2023-03-14T12:06:56;4.15;;;1.55;;
14799;SDS011;7491;57.750;11.970;2023-03-14T12:09:23;1.90;;;0.80;;
14799;SDS011;7491;57.750;11.970;2023-03-14T12:11:54;3.63;;;1.10;;
14799;SDS011;7491;57.750;11.970;2023-03-14T12:14:24;4.00;;;0.82;;
14799;SDS011;7491;57.750;11.970;2023-03-14T12:16:54;2.28;;;1.00;;
14799;SDS011;7491;57.750;11.970;2023-03-14T12:19:27;3.85;;;0.98;;
14799;SDS011;7491;57.750;11.970;2023-03-14T12:22:00;1.95;;;0.90;;
14799;SDS011;7491;57.750;11.970;2023-03-14T12:24:34;3.92;;;1.10;;
14799;SDS011;7491;57.750;11.970;2023-03-14T12:27:05;2.55;;;1.23;;
14799;SDS011;7491;57.750;11.970;2023-03-14T12:32:24;2.25;;;1.00;;
14799;SDS011;7491;57.750;11.970;2023-03-14T12:34:52;2.75;;;1.02;;
14799;SDS011;7491;57.750;11.970;2023-03-14T12:40:16;2.67;;;1.00;;
14799;SDS011;7491;57.750;11.970;2023-03-14T12:42:56;1.45;;;0.93;;
14799;SDS011;7491;57.750;11.970;2023-03-14T12:45:27;3.08;;;0.90;;
14799;SDS011;7491;57.750;11.970;2023-03-14T12:47:56;4.10;;;1.85;;
14799;SDS011;7491;57.750;11.970;2023-03-14T12:50:43;3.72;;;0.95;;
14799;SDS011;7491;57.750;11.970;2023-03-14T12:56:20;2.05;;;1.20;;
14799;SDS011;7491;57.750;11.970;2023-03-14T12:59:01;4.57;;;0.93;;
14799;SDS011;7491;57.750;11.970;2023-03-14T13:01:44;6.72;;;1.10;;
14799;SDS011;7491;57.750;11.970;2023-03-14T13:04:14;3.38;;;0.88;;
14799;SDS011;7491;57.750;11.970;2023-03-14T13:06:44;3.53;;;0.95;;
14799;SDS011;7491;57.750;11.970;2023-03-14T13:12:22;2.92;;;1.00;;
14799;SDS011;7491;57.750;11.970;2023-03-14T13:14:57;3.20;;;1.48;;
14799;SDS011;7491;57.750;11.970;2023-03-14T13:17:29;1.02;;;0.70;;
14799;SDS011;7491;57.750;11.970;2023-03-14T13:20:00;3.70;;;0.77;;
14799;SDS011;7491;57.750;11.970;2023-03-14T13:22:32;6.40;;;1.27;;
14799;SDS011;7491;57.750;11.970;2023-03-14T13:25:04;2.30;;;0.82;;
14799;SDS011;7491;57.750;11.970;2023-03-14T13:27:33;2.72;;;1.38;;
14799;SDS011;7491;57.750;11.970;2023-03-14T13:30:11;3.15;;;0.77;;
14799;SDS011;7491;57.750;11.970;2023-03-14T13:32:42;3.13;;;1.05;;
14799;SDS011;7491;57.750;11.970;2023-03-14T13:35:16;1.48;;;0.80;;
14799;SDS011;7491;57.750;11.970;2023-03-14T13:37:44;0.93;;;0.70;;
14799;SDS011;7491;57.750;11.970;2023-03-14T13:40:19;2.17;;;0.80;;
14799;SDS011;7491;57.750;11.970;2023-03-14T13:42:47;1.10;;;0.60;;
14799;SDS011;7491;57.750;11.970;2023-03-14T13:45:15;1.13;;;1.00;;
14799;SDS011;7491;57.750;11.970;2023-03-14T13:47:42;1.30;;;0.70;;
14799;SDS011;7491;57.750;11.970;2023-03-14T13:50:14;0.80;;;0.80;;
14799;SDS011;7491;57.750;11.970;2023-03-14T13:52:42;3.05;;;0.73;;
14799;SDS011;7491;57.750;11.970;2023-03-14T13:55:14;2.05;;;0.80;;
14799;SDS011;7491;57.750;11.970;2023-03-14T13:57:42;0.60;;;0.60;;
14799;SDS011;7491;57.750;11.970;2023-03-14T14:00:18;0.88;;;0.60;;
14799;SDS011;7491;57.750;11.970;2023-03-14T14:02:46;1.23;;;1.00;;
14799;SDS011;7491;57.750;11.970;2023-03-14T14:05:14;1.85;;;0.82;;
14799;SDS011;7491;57.750;11.970;2023-03-14T14:07:42;2.53;;;0.77;;
14799;SDS011;7491;57.750;11.970;2023-03-14T14:10:10;1.05;;;0.70;;
14799;SDS011;7491;57.750;11.970;2023-03-14T14:12:39;1.35;;;0.80;;
14799;SDS011;7491;57.750;11.970;2023-03-14T14:15:12;1.60;;;0.90;;
14799;SDS011;7491;57.750;11.970;2023-03-14T14:17:46;2.20;;;0.77;;
14799;SDS011;7491;57.750;11.970;2023-03-14T14:20:19;0.95;;;0.70;;
14799;SDS011;7491;57.750;11.970;2023-03-14T14:22:49;3.25;;;0.70;;
14799;SDS011;7491;57.750;11.970;2023-03-14T14:25:16;2.72;;;0.60;;
14799;SDS011;7491;57.750;11.970;2023-03-14T14:27:44;3.53;;;0.80;;
14799;SDS011;7491;57.750;11.970;2023-03-14T14:33:16;1.00;;;0.88;;
14799;SDS011;7491;57.750;11.970;2023-03-14T14:35:49;2.20;;;0.82;;
14799;SDS011;7491;57.750;11.970;2023-03-14T14:38:18;0.63;;;0.63;;
14799;SDS011;7491;57.750;11.970;2023-03-14T14:40:47;1.40;;;0.70;;
14799;SDS011;7491;57.750;11.970;2023-03-14T14:43:17;0.60;;;0.60;;
14799;SDS011;7491;57.750;11.970;2023-03-14T14:45:45;1.33;;;0.90;;
14799;SDS011;7491;57.750;11.970;2023-03-14T14:48:17;2.22;;;1.00;;
14799;SDS011;7491;57.750;11.970;2023-03-14T14:50:50;1.17;;;0.80;;
14799;SDS011;7491;57.750;11.970;2023-03-14T14:53:23;1.33;;;0.80;;
14799;SDS011;7491;57.750;11.970;2023-03-14T14:55:53;1.65;;;0.80;;
14799;SDS011;7491;57.750;11.970;2023-03-14T14:58:23;2.15;;;1.00;;
14799;SDS011;7491;57.750;11.970;2023-03-14T15:00:52;2.05;;;0.90;;
14799;SDS011;7491;57.750;11.970;2023-03-14T15:03:24;2.03;;;0.85;;
14799;SDS011;7491;57.750;11.970;2023-03-14T15:05:55;3.10;;;0.93;;
14799;SDS011;7491;57.750;11.970;2023-03-14T15:08:21;0.95;;;0.95;;
14799;SDS011;7491;57.750;11.970;2023-03-14T15:10:50;2.35;;;0.80;;
14799;SDS011;7491;57.750;11.970;2023-03-14T15:13:16;1.20;;;0.73;;
14799;SDS011;7491;57.750;11.970;2023-03-14T15:15:43;1.92;;;1.00;;